EST,Max TemperatureF,Mean TemperatureF,Min TemperatureF,Max Dew PointF,MeanDew PointF,Min DewpointF,Max Humidity, Mean Humidity, Min Humidity, Max Sea Level PressureIn, Mean Sea Level PressureIn, Min Sea Level PressureIn, Max VisibilityMiles, Mean VisibilityMiles, Min VisibilityMiles, Max Wind SpeedMPH, Mean Wind SpeedMPH, Max Gust SpeedMPH,PrecipitationIn, CloudCover, Events, WindDirDegrees
2012-11-1,49,46,43,36,34,31,76,66,56,29.77,29.71,29.67,10,10,10,18,9,22,T,8,,261
2012-11-2,48,43,38,34,32,30,79,66,53,29.96,29.83,29.76,10,10,10,24,9,30,0.00,7,,277
2012-11-3,47,44,40,32,30,28,70,64,57,30.11,30.04,29.96,10,10,10,22,15,29,0.00,7,,306
2012-11-4,48,43,37,29,28,26,70,58,46,30.12,30.09,30.05,10,10,10,16,7,20,0.00,6,,324
2012-11-5,46,41,36,28,26,23,64,55,45,30.22,30.15,30.09,10,10,10,17,10,21,0.00,4,,333
2012-11-6,43,35,26,27,24,22,81,65,49,30.24,30.17,30.07,10,10,10,9,3,13,0.00,2,,78
2012-11-7,40,36,32,28,25,20,75,65,54,30.07,29.99,29.92,10,10,10,14,8,17,0.00,5,,354
2012-11-8,51,42,32,29,21,16,59,42,24,30.13,30.04,29.98,10,10,10,22,9,28,0.00,0,,310
2012-11-9,55,45,35,34,32,28,76,60,43,30.27,30.21,30.13,10,10,7,17,9,24,0.00,0,,305
2012-11-10,61,49,37,39,36,32,92,66,39,30.39,30.33,30.26,10,8,4,10,2,13,0.00,2,,158
2012-11-11,65,51,36,43,39,35,92,68,43,30.49,30.42,30.37,10,6,2,10,2,13,0.00,0,,175
2012-11-12,65,60,55,57,51,43,78,66,53,30.39,30.27,30.12,10,9,5,22,13,29,0.00,3,Rain,173
2012-11-13,48,43,37,45,31,25,93,71,49,30.54,30.42,30.25,10,9,5,20,10,24,0.33,3,Rain,319
2012-11-14,45,40,35,26,25,24,70,58,45,30.62,30.54,30.49,10,10,10,14,7,18,0.00,3,,12
2012-11-15,44,37,29,31,29,25,89,76,62,30.47,30.41,30.35,10,9,7,7,3,9,0.00,3,,2
2012-11-16,53,42,31,33,29,26,100,71,41,30.50,30.40,30.35,10,8,4,13,3,15,0.00,0,,15
2012-11-17,55,43,31,33,29,27,76,57,38,30.65,30.60,30.51,10,10,9,9,6,14,0.00,0,,11
2012-11-18,52,41,29,37,32,27,85,65,44,30.67,30.61,30.56,10,9,6,12,4,17,0.00,2,,48
2012-11-19,48,43,37,37,35,33,85,75,65,30.54,30.42,30.28,10,8,5,10,4,12,0.00,4,,349
2012-11-20,49,39,29,37,34,28,100,78,56,30.26,30.20,30.14,10,5,0,7,1,8,0.00,1,Fog,84
2012-11-21,55,42,28,38,32,28,100,69,38,30.28,30.21,30.14,10,4,0,8,1,13,0.00,1,Fog,63
2012-11-22,55,42,29,34,30,27,85,62,38,30.32,30.25,30.16,10,8,5,7,0,8,0.00,0,,83
2012-11-23,60,46,31,45,33,25,85,61,37,30.14,29.95,29.81,10,10,7,13,4,15,0.00,3,Rain,248
2012-11-24,38,37,35,23,21,19,59,54,48,30.06,29.99,29.91,10,10,9,26,19,36,T,8,Snow,295
2012-11-25,41,37,32,20,19,18,59,50,41,30.08,30.02,29.94,10,10,10,20,10,26,0.00,4,,231
2012-11-26,49,38,27,28,24,19,75,59,42,30.24,30.17,30.04,10,10,10,12,4,29,0.00,2,,79
2012-11-27,41,37,33,37,34,28,100,82,64,30.31,30.23,30.18,9,4,1,16,6,28,0.24,8,Rain-Snow,348
2012-11-28,44,38,32,26,22,18,78,56,33,30.40,30.33,30.28,10,10,10,18,6,25,0.00,3,,282
2012-11-29,46,39,31,25,22,21,69,53,37,30.47,30.40,30.35,10,10,8,12,6,17,0.00,0,,212
2012-11-30,51,40,28,31,26,22,78,60,42,30.40,30.37,30.32,10,10,6,17,1,30,0.00,1,,95